• Join FlightAware (Why Join?)
  • Login
  • US Flag 
01:21AM EDT


 

Airport Tracker/Info


-or-


 

Live Flight TrackerFlight Track Log ✈ EGF3994 ✈ 06-Jun-2013 ✈ KORD - KDAY

Flight Track Log - Related Links

Times and Time Zones

All times are in EDT time to prevent confusion due to time zone crossing. See the EGF3994 flight status page for this flight to view local times or setup timezone preferences in your user account.

Time Position Orientation Groundspeed Altitude Reporting Facility
EDT Latitude Longitude Course Direction KTS MPH feet Rate Location/Type
08:20PM 42.0000 -87.8667 90° East 164 189 2,100  Level Chicago TRACON
08:21PM 42.0000 -87.8000 90° East 208 239 3,600 1,560 Climbing Chicago TRACON
08:23PM 41.9614 -87.4805 98° East  Level FlightAware Approximate
08:23PM 42.0058 -87.7072 85° East 234 269 5,500  Level Chicago Center
08:24PM 41.9482 -87.3416 95° East  Level FlightAware Approximate
08:24PM 41.9944 -87.6019 98° East 272 313 7,700  Level Chicago Center
08:25PM 41.9383 -87.2023 95° East  Level FlightAware Approximate
08:25PM 41.9825 -87.4714 97° East 290 334 10,200  Level Chicago Center
08:26PM 41.9333 -87.0779 90° East  Level FlightAware Approximate
08:26PM 41.9728 -87.3556 96° East 305 351 12,100  Level Chicago Center
08:27PM 41.9608 -87.2364 98° East 317 365 14,200 1,800 Climbing Chicago Center
08:28PM 41.9489 -87.1164 98° East 323 372 15,900 1,380 Climbing Chicago Center
08:29PM 41.9433 -86.9911 93° East 333 383 17,100 1,140 Climbing Chicago Center
08:30PM 41.9486 -86.8258 87° East 364 419 18,300 900 Climbing Chicago Center
08:31PM 41.9503 -86.6811 89° East 382 440 19,000 300 Climbing Chicago Center
08:32PM 41.9508 -86.5139 90° East 422 486 19,000  Level Chicago Center
08:33PM 41.9533 -86.3464 89° East 443 510 19,000  Level Chicago Center
08:34PM 41.9453 -86.1797 94° East 448 516 19,000 480 Level Chicago Center
08:35PM 41.9006 -86.0292 112° Southeast 437 503 20,000 1,200 Climbing Chicago Center
08:36PM 41.8567 -85.8800 112° Southeast 432 497 21,500 1,380 Climbing Chicago Center
08:37PM 41.8089 -85.7378 114° Southeast 423 487 22,900 720 Climbing Chicago Center
08:38PM 41.7033 -85.6161 139° Southeast 421 484 23,000  Climbing Chicago Center
08:39PM 41.6094 -85.5117 140° Southeast 440 506 23,000 -420 Level Chicago Center
08:40PM 41.5164 -85.4036 139° Southeast 459 528 22,200 -960 Descending Chicago Center
08:41PM 41.4022 -85.2722 139° Southeast 458 527 21,100 -600 Descending Chicago Center
08:42PM 41.3086 -85.1664 140° Southeast 449 517 21,000 -60 Descending Chicago Center
08:43PM 41.2144 -85.0600 140° Southeast 446 513 21,000 -660 Level Chicago Center
08:44PM 41.1194 -84.9539 140° Southeast 447 514 19,700 -1,680 Descending Chicago Center
08:45PM 41.0250 -84.8500 140° Southeast 444 511 17,600 -1,920 Descending Chicago Center
08:46PM 40.9381 -84.7531 140° Southeast 418 481 15,800 -1,440 Descending Chicago Center
08:47PM 40.8364 -84.6408 140° Southeast 400 460 14,700 -1,380 Descending Chicago Center
08:48PM 40.7872 -84.5883 141° Southeast 403 464 13,700 -1,980 Descending Indianapolis Center
08:49PM 40.7197 -84.5122 139° Southeast 404 465 12,100 -1,980 Descending Indianapolis Center
08:49PM 40.7022 -84.4928 140° Southeast 401 461 11,700 -960 Descending Indianapolis Center
08:50PM 40.6222 -84.4217 146° Southeast 382 440 11,000 -540 Descending Indianapolis Center
08:51PM 40.5094 -84.4089 175° South 377 434 10,600 -540 Descending Indianapolis Center
08:52PM 40.4047 -84.4164 183° South 380 437 10,000 -600 Descending Indianapolis Center
08:53PM 40.3183 -84.4211 182° South 296 341 9,500 -1,200 Descending Indianapolis Center
08:54PM 40.2403 -84.4269 183° South 272 313 7,700 -1,920 Descending Indianapolis Center
08:55PM 40.1633 -84.4436 189° South 276 318 5,700 -1,860 Descending Indianapolis Center
08:56PM 40.0764 -84.4564 186° South 271 312 3,800 -1,320 Descending Indianapolis Center
08:57PM 39.9964 -84.4647 185° South 273 314 2,900 -480 Descending Indianapolis Center
08:58PM 39.9231 -84.4742 186° South 267 307 2,900  Level Indianapolis Center
08:59PM 39.8478 -84.4606 172° South 264 304 3,000  Climbing Indianapolis Center
09:00PM 39.8169 -84.4264 140° Southeast 199 229 3,000 -120 Level Indianapolis Center
09:00PM 39.8158 -84.4078 94° East 224 258 2,900  Descending Indianapolis Center
09:01PM 39.8275 -84.3736 66° East 163 188 3,000 120 Climbing Indianapolis Center